Time;durP1;ratioP1;P1;durP2;ratioP2;P2;SDS_P1;SDS_P2;PMS_P1;PMS_P2;Temp;Humidity;BMP_temperature;BMP_pressure;BME280_temperature;BME280_humidity;BME280_pressure;Samples;Min_cycle;Max_cycle;Signal;HPM_P1;HPM_P2
2021/07/14 00:02:03;;;;;;;8.90;6.05;;;;;;;20.26;81.92;99881.84;4901885;28;98059;-65
2021/07/14 00:04:29;;;;;;;8.50;6.05;;;;;;;20.13;82.04;99885.78;4887406;28;98998;-65
2021/07/14 00:06:55;;;;;;;8.32;5.63;;;;;;;20.37;81.66;99884.91;4901079;28;98100;-70
2021/07/14 00:09:21;;;;;;;9.25;6.07;;;;;;;20.37;82.40;99888.44;4902073;28;116252;-70
2021/07/14 00:11:56;;;;;;;10.38;6.13;;;;;;;20.39;82.09;99893.56;4900047;28;126836;-65
2021/07/14 00:22:23;;;;;;;9.77;6.60;;;;;;;20.23;82.24;99926.31;4884933;28;98034;-70
2021/07/14 00:24:50;;;;;;;9.30;6.15;;;;;;;20.24;82.16;99936.94;4893209;28;111931;-70
2021/07/14 00:27:16;;;;;;;9.52;6.22;;;;;;;20.20;82.31;99930.56;4901697;28;127340;-70
2021/07/14 00:29:54;;;;;;;10.48;6.95;;;;;;;19.97;82.37;99926.72;4911725;28;104318;-70
2021/07/14 00:32:20;;;;;;;9.98;7.32;;;;;;;19.86;82.58;99918.97;4931959;28;99280;-70
2021/07/14 00:34:46;;;;;;;8.95;7.13;;;;;;;19.69;83.53;99923.84;4896146;28;98658;-65
2021/07/14 00:37:13;;;;;;;10.95;8.18;;;;;;;19.66;83.52;99917.16;4898395;28;128140;-70
2021/07/14 00:39:40;;;;;;;11.55;7.82;;;;;;;19.74;83.49;99916.22;4916314;28;97795;-70
2021/07/14 00:42:07;;;;;;;13.65;8.70;;;;;;;19.50;84.07;99918.94;4917142;28;117777;-70
2021/07/14 00:44:33;;;;;;;10.43;8.13;;;;;;;19.69;83.72;99911.00;4902396;28;98247;-69
2021/07/14 00:47:03;;;;;;;12.55;8.35;;;;;;;19.61;84.06;99909.97;4900190;28;127520;-70
2021/07/14 00:49:29;;;;;;;8.43;6.90;;;;;;;19.78;83.58;99903.47;4917502;28;98067;-70
2021/07/14 00:51:56;;;;;;;12.25;7.88;;;;;;;19.58;83.55;99907.88;4913850;28;98476;-70
2021/07/14 00:54:22;;;;;;;11.55;8.05;;;;;;;19.88;83.07;99906.88;4901772;28;99164;-70
2021/07/14 00:56:48;;;;;;;11.15;7.18;;;;;;;19.87;82.69;99900.63;4869693;28;127127;-65
2021/07/14 00:59:14;;;;;;;12.73;7.10;;;;;;;19.99;82.43;99899.81;4901453;28;97921;-70
2021/07/14 01:01:43;;;;;;;10.32;7.00;;;;;;;19.84;82.46;99902.09;4898682;28;127825;-65
2021/07/14 01:04:26;;;;;;;12.98;6.80;;;;;;;19.71;83.06;99896.97;4898884;28;116485;-70
2021/07/14 01:07:13;;;;;;;11.65;6.18;;;;;;;19.80;82.98;99906.66;4884331;28;102131;-70
2021/07/14 01:10:03;;;;;;;8.70;5.75;;;;;;;19.67;83.36;99907.00;4901640;28;97862;-65
2021/07/14 01:13:09;;;;;;;10.90;5.78;;;;;;;19.59;83.50;99905.94;4900064;28;97901;-65
2021/07/14 01:16:00;;;;;;;10.10;6.05;;;;;;;19.62;83.80;99902.56;4889077;28;98164;-65
2021/07/14 01:18:35;;;;;;;11.65;6.28;;;;;;;19.72;83.15;99899.34;4885517;28;103962;-65
2021/07/14 01:21:28;;;;;;;10.85;6.30;;;;;;;19.47;83.86;99895.81;4900339;28;102999;-66
2021/07/14 01:24:26;;;;;;;8.95;5.72;;;;;;;19.46;84.15;99902.41;4901206;28;98046;-65
2021/07/14 01:27:17;;;;;;;9.82;6.65;;;;;;;19.42;83.99;99901.50;4931027;28;114621;-70
2021/07/14 01:29:55;;;;;;;10.10;6.00;;;;;;;19.48;83.88;99905.59;4911648;28;101189;-65
2021/07/14 01:32:24;;;;;;;10.93;6.28;;;;;;;19.36;84.21;99900.09;4902360;28;97926;-70
2021/07/14 01:35:01;;;;;;;11.88;6.57;;;;;;;19.27;84.41;99905.69;4884543;28;98682;-69
2021/07/14 01:37:27;;;;;;;10.23;6.20;;;;;;;19.38;84.60;99908.78;4887091;28;98633;-70
2021/07/14 01:39:55;;;;;;;11.20;7.00;;;;;;;19.18;85.12;99910.44;4903418;28;98990;-69
2021/07/14 01:42:24;;;;;;;14.07;6.03;;;;;;;19.33;84.94;99904.31;4936305;28;98112;-69
2021/07/14 01:44:52;;;;;;;12.10;6.57;;;;;;;19.26;85.06;99903.28;4918000;28;98745;-69
2021/07/14 01:47:19;;;;;;;14.60;6.68;;;;;;;19.10;85.13;99903.94;4900659;28;99408;-70
2021/07/14 01:49:45;;;;;;;11.25;5.85;;;;;;;19.22;85.11;99902.38;4900373;28;98398;-70
2021/07/14 01:52:18;;;;;;;11.65;7.22;;;;;;;19.13;85.40;99905.19;4856269;28;117888;-69
2021/07/14 01:54:44;;;;;;;13.90;6.78;;;;;;;19.36;84.88;99902.84;4881909;28;98940;-69
2021/07/14 01:57:11;;;;;;;13.13;6.65;;;;;;;19.37;84.46;99899.78;4903906;28;108292;-69
2021/07/14 01:59:40;;;;;;;13.13;7.45;;;;;;;19.22;84.75;99899.66;4915491;28;100272;-65
2021/07/14 02:02:07;;;;;;;12.20;7.30;;;;;;;19.36;84.30;99911.03;4900762;28;117596;-65
2021/07/14 02:04:34;;;;;;;12.45;7.15;;;;;;;19.23;84.43;99907.50;4888112;28;98674;-70
2021/07/14 02:07:14;;;;;;;15.73;7.38;;;;;;;19.30;84.02;99896.81;4895249;28;98336;-70
2021/07/14 02:09:44;;;;;;;11.68;7.10;;;;;;;19.16;84.61;99903.72;4919015;28;98574;-70
2021/07/14 02:12:24;;;;;;;11.18;6.97;;;;;;;19.09;84.64;99896.88;4919327;28;98096;-65
2021/07/14 02:14:54;;;;;;;11.32;6.50;;;;;;;19.17;84.78;99903.38;4917392;28;98460;-65
2021/07/14 02:17:23;;;;;;;12.65;7.25;;;;;;;18.99;85.15;99893.78;4904742;28;98555;-70
2021/07/14 02:19:57;;;;;;;12.77;7.65;;;;;;;19.02;85.05;99909.47;4901186;28;98775;-65
2021/07/14 02:22:23;;;;;;;10.50;7.45;;;;;;;19.05;84.79;99906.06;4903538;28;104721;-70
2021/07/14 02:24:49;;;;;;;11.25;7.53;;;;;;;19.03;84.91;99914.63;4885481;28;115961;-70
2021/07/14 02:27:17;;;;;;;10.13;6.63;;;;;;;19.22;84.80;99916.03;4895476;28;98382;-70
2021/07/14 02:29:43;;;;;;;14.38;7.30;;;;;;;18.98;85.31;99917.56;4901414;28;99718;-65
2021/07/14 02:32:12;;;;;;;11.75;7.60;;;;;;;18.98;84.95;99922.22;4920098;28;97997;-70
2021/07/14 02:34:38;;;;;;;10.32;7.00;;;;;;;19.09;84.81;99931.56;4915182;28;99342;-70
2021/07/14 02:37:06;;;;;;;11.40;7.25;;;;;;;18.96;85.25;99925.28;4917911;28;98678;-70
2021/07/14 02:39:32;;;;;;;11.43;6.32;;;;;;;19.10;85.04;99931.25;4921761;28;98507;-65
2021/07/14 02:42:06;;;;;;;10.77;6.50;;;;;;;19.08;84.93;99921.78;4867809;28;98069;-70
2021/07/14 02:44:35;;;;;;;9.63;6.40;;;;;;;19.15;84.69;99915.78;4880293;28;98469;-70
2021/07/14 02:47:01;;;;;;;10.05;6.53;;;;;;;19.21;84.88;99920.69;4917987;28;97933;-70
2021/07/14 02:49:27;;;;;;;10.95;5.72;;;;;;;19.32;84.53;99929.25;4884536;28;98852;-70
2021/07/14 02:51:54;;;;;;;10.75;6.28;;;;;;;19.26;84.72;99934.16;4902381;28;118300;-70
2021/07/14 02:54:25;;;;;;;8.65;6.13;;;;;;;19.36;84.29;99932.91;4887798;28;120964;-70
2021/07/14 02:57:02;;;;;;;10.10;6.28;;;;;;;19.34;83.92;99938.72;4900661;28;98458;-65
2021/07/14 02:59:36;;;;;;;10.90;5.55;;;;;;;19.40;83.87;99935.75;4899117;28;98137;-65
2021/07/14 03:02:03;;;;;;;8.85;5.90;;;;;;;19.45;83.73;99922.66;4887895;28;98190;-65
2021/07/14 03:04:40;;;;;;;9.85;6.80;;;;;;;19.35;83.76;99926.63;4882784;28;110637;-65
2021/07/14 03:07:08;;;;;;;11.93;6.32;;;;;;;19.44;83.60;99921.06;4891197;28;99061;-70
2021/07/14 03:09:39;;;;;;;8.70;6.45;;;;;;;19.47;83.15;99934.06;4884311;28;98444;-65
2021/07/14 03:12:06;;;;;;;10.13;6.40;;;;;;;19.43;83.75;99932.34;4933250;28;98006;-70
2021/07/14 03:14:33;;;;;;;9.60;6.45;;;;;;;19.45;83.27;99928.13;4915004;28;107312;-71
2021/07/14 03:16:59;;;;;;;9.95;6.53;;;;;;;19.47;83.22;99925.84;4883106;28;120567;-71
2021/07/14 03:19:25;;;;;;;10.15;7.25;;;;;;;19.17;83.95;99933.41;4873517;28;98359;-71
2021/07/14 03:21:51;;;;;;;9.52;6.20;;;;;;;19.26;83.87;99927.88;4866949;28;116853;-70
2021/07/14 03:24:17;;;;;;;10.38;6.75;;;;;;;19.37;84.04;99916.19;4872863;28;127147;-65
2021/07/14 03:26:44;;;;;;;11.18;6.90;;;;;;;19.48;83.62;99913.78;4931372;28;126694;-71
2021/07/14 03:29:10;;;;;;;11.27;7.03;;;;;;;19.45;83.18;99911.72;4931453;28;98155;-66
2021/07/14 03:31:37;;;;;;;10.18;6.85;;;;;;;19.48;83.22;99913.00;4900978;28;110031;-71
2021/07/14 03:34:03;;;;;;;9.30;6.28;;;;;;;19.54;83.62;99909.69;4916348;28;128224;-65
2021/07/14 03:36:29;;;;;;;13.55;7.05;;;;;;;19.32;83.49;99919.13;4908209;28;123540;-71
2021/07/14 03:38:56;;;;;;;11.13;6.78;;;;;;;19.29;83.90;99927.97;4881806;28;98033;-71
2021/07/14 03:41:22;;;;;;;10.75;7.00;;;;;;;19.20;83.55;99935.47;4882207;28;99894;-71
2021/07/14 03:43:49;;;;;;;7.45;5.75;;;;;;;18.96;83.79;99924.50;4881238;28;112440;-66
2021/07/14 03:46:15;;;;;;;6.97;5.75;;;;;;;19.22;83.13;99929.69;4901376;28;98164;-71
2021/07/14 03:48:42;;;;;;;8.57;5.40;;;;;;;19.12;83.33;99925.44;4901301;28;128304;-71
2021/07/14 03:51:08;;;;;;;6.50;5.45;;;;;;;19.12;83.08;99931.69;4886207;28;98281;-65
2021/07/14 03:53:34;;;;;;;7.72;5.07;;;;;;;19.22;82.59;99922.31;4887689;28;98476;-65
2021/07/14 03:56:00;;;;;;;5.57;4.55;;;;;;;19.32;82.77;99932.78;4867960;28;125804;-71
2021/07/14 03:58:27;;;;;;;8.52;5.35;;;;;;;19.37;82.03;99939.94;4864557;28;128219;-71
2021/07/14 04:00:53;;;;;;;7.22;4.88;;;;;;;19.37;82.32;99939.94;4898520;28;98805;-71
2021/07/14 04:03:27;;;;;;;6.68;4.63;;;;;;;19.50;81.90;99932.59;4912752;28;97740;-65
2021/07/14 04:06:02;;;;;;;7.57;4.68;;;;;;;19.47;81.74;99939.53;4886203;28;98171;-71
2021/07/14 04:08:42;;;;;;;6.32;4.97;;;;;;;19.50;81.89;99922.47;4902900;28;97837;-65
2021/07/14 04:11:09;;;;;;;5.13;3.92;;;;;;;19.64;80.87;99913.94;4917438;28;97925;-70
2021/07/14 04:13:35;;;;;;;8.15;4.40;;;;;;;19.69;81.03;99916.47;4902392;28;119614;-64
2021/07/14 04:16:01;;;;;;;8.05;4.40;;;;;;;19.68;80.69;99923.06;4902277;28;126490;-65
2021/07/14 04:18:27;;;;;;;6.35;4.30;;;;;;;19.72;80.70;99915.75;4902095;28;126701;-70
2021/07/14 04:20:53;;;;;;;5.57;4.15;;;;;;;19.90;80.24;99916.34;4882847;28;98002;-65
2021/07/14 04:23:20;;;;;;;6.05;4.00;;;;;;;19.83;79.66;99919.63;4882612;28;127901;-65
2021/07/14 04:25:46;;;;;;;5.90;4.40;;;;;;;19.91;79.07;99925.34;4881910;28;127287;-70
2021/07/14 04:28:12;;;;;;;4.78;4.13;;;;;;;19.90;79.42;99924.53;4903219;28;100765;-71
2021/07/14 04:30:38;;;;;;;5.30;4.20;;;;;;;19.98;79.18;99926.38;4913299;28;116612;-65
2021/07/14 04:33:04;;;;;;;5.28;4.05;;;;;;;19.65;79.52;99933.88;4899021;28;127805;-65
2021/07/14 04:35:30;;;;;;;4.18;3.80;;;;;;;19.69;79.95;99941.06;4901877;28;104158;-71
2021/07/14 04:37:56;;;;;;;5.38;4.10;;;;;;;19.75;79.84;99945.16;4902143;28;111108;-71
2021/07/14 04:40:22;;;;;;;6.20;4.15;;;;;;;19.94;79.32;99946.53;4897019;28;107468;-71
2021/07/14 04:42:51;;;;;;;6.57;4.03;;;;;;;19.83;79.30;99944.25;4883415;28;98310;-71
2021/07/14 04:45:17;;;;;;;4.65;3.85;;;;;;;20.25;78.94;99944.00;4889499;28;98271;-71
2021/07/14 04:47:43;;;;;;;6.63;3.70;;;;;;;20.28;78.06;99945.25;4893434;28;97785;-64
2021/07/14 04:50:10;;;;;;;4.97;3.92;;;;;;;20.38;78.16;99936.56;4899255;28;97910;-71
2021/07/14 04:52:36;;;;;;;5.13;4.10;;;;;;;20.43;77.96;99927.31;4880501;28;98141;-65
2021/07/14 04:55:02;;;;;;;6.13;4.00;;;;;;;20.47;77.94;99937.22;4902649;28;127120;-71
2021/07/14 04:57:29;;;;;;;5.55;3.95;;;;;;;20.72;77.35;99937.97;4891282;28;98636;-65
2021/07/14 04:59:55;;;;;;;4.82;3.88;;;;;;;20.65;76.59;99936.97;4899164;28;98098;-71
2021/07/14 05:02:21;;;;;;;4.97;3.95;;;;;;;20.63;76.37;99939.25;4894472;28;99330;-65
2021/07/14 05:04:47;;;;;;;6.80;3.95;;;;;;;20.43;77.50;99949.19;4901482;28;127744;-71
2021/07/14 05:07:13;;;;;;;6.82;4.25;;;;;;;20.45;77.38;99960.63;4891598;28;116232;-65
2021/07/14 05:09:39;;;;;;;4.18;3.70;;;;;;;20.56;77.19;99972.72;4902358;28;97729;-65
2021/07/14 05:12:05;;;;;;;5.50;3.90;;;;;;;20.33;77.76;99989.59;4897570;28;98036;-72
2021/07/14 05:14:31;;;;;;;6.20;3.70;;;;;;;20.24;78.22;99985.38;4900626;28;98158;-72
2021/07/14 05:16:58;;;;;;;5.78;4.00;;;;;;;20.32;78.58;100001.69;4889391;28;127626;-71
2021/07/14 05:19:24;;;;;;;5.30;4.03;;;;;;;20.48;77.57;100001.00;4903745;28;98156;-72
2021/07/14 05:21:50;;;;;;;5.70;3.50;;;;;;;20.48;78.31;100003.72;4914921;28;127650;-65
2021/07/14 05:24:16;;;;;;;5.43;3.22;;;;;;;20.20;78.22;100028.25;4900974;28;99359;-71
2021/07/14 05:26:42;;;;;;;4.15;3.05;;;;;;;20.13;79.15;100026.09;4884049;28;127812;-71
2021/07/14 05:29:08;;;;;;;5.20;3.30;;;;;;;20.41;78.71;100019.91;4893632;28;115822;-64
2021/07/14 05:31:34;;;;;;;5.78;3.45;;;;;;;20.25;78.54;100036.25;4898775;28;98743;-71
2021/07/14 05:34:00;;;;;;;3.50;3.20;;;;;;;20.10;78.42;100032.25;4902304;28;101530;-71
2021/07/14 05:36:26;;;;;;;4.93;3.97;;;;;;;20.09;78.70;100045.13;4900196;28;112102;-65
2021/07/14 05:38:53;;;;;;;6.05;3.83;;;;;;;20.05;79.41;100037.94;4901298;28;118777;-64
2021/07/14 05:41:19;;;;;;;4.70;3.53;;;;;;;20.34;78.69;100045.13;4900859;28;98047;-65
2021/07/14 05:43:45;;;;;;;5.97;4.10;;;;;;;20.83;77.46;100056.84;4866215;28;126312;-65
2021/07/14 05:46:11;;;;;;;5.10;3.78;;;;;;;20.92;77.49;100062.19;4930129;28;126186;-71
2021/07/14 05:48:37;;;;;;;6.80;4.38;;;;;;;21.12;76.44;100056.88;4899893;28;98782;-65
2021/07/14 05:51:03;;;;;;;5.20;3.95;;;;;;;21.45;74.99;100046.47;4899915;28;128343;-72
2021/07/14 05:53:29;;;;;;;6.25;3.40;;;;;;;21.60;74.08;100044.91;4931933;28;98333;-72
2021/07/14 05:55:55;;;;;;;6.47;3.30;;;;;;;21.78;73.83;100048.94;4901307;28;98078;-65
2021/07/14 05:58:21;;;;;;;4.82;3.08;;;;;;;22.10;72.37;100048.16;4898865;28;111973;-65
2021/07/14 06:00:47;;;;;;;3.83;2.85;;;;;;;24.53;64.44;100037.28;4900316;28;125865;-72
2021/07/14 06:03:13;;;;;;;6.50;2.47;;;;;;;24.51;62.07;100058.06;4898406;28;127558;-65
2021/07/14 06:05:39;;;;;;;5.03;2.20;;;;;;;25.53;59.47;100054.28;4901026;28;98053;-65
2021/07/14 06:08:07;;;;;;;2.55;2.10;;;;;;;26.72;56.25;100051.34;4899903;28;119017;-65
2021/07/14 06:10:33;;;;;;;3.58;2.13;;;;;;;25.90;57.78;100035.75;4900721;28;99330;-72
2021/07/14 06:12:59;;;;;;;4.00;2.17;;;;;;;26.20;57.27;100013.50;4930788;28;116039;-65
2021/07/14 06:15:28;;;;;;;3.80;1.63;;;;;;;26.39;54.14;100022.69;4900625;28;97996;-72
2021/07/14 06:17:55;;;;;;;4.75;1.90;;;;;;;26.53;53.32;100010.97;4916435;28;97855;-65
2021/07/14 06:20:21;;;;;;;2.45;1.73;;;;;;;25.20;58.60;100009.03;4914687;28;98662;-65
2021/07/14 06:22:47;;;;;;;4.28;1.70;;;;;;;24.45;60.86;99992.31;4900571;28;106455;-65
2021/07/14 06:25:14;;;;;;;3.17;2.10;;;;;;;23.70;62.69;99973.81;4903788;28;98422;-65
2021/07/14 06:27:41;;;;;;;4.28;1.90;;;;;;;23.18;65.30;99970.50;4905204;28;97780;-65
2021/07/14 06:30:09;;;;;;;3.58;1.85;;;;;;;22.61;66.77;99966.59;4903069;28;113659;-71
2021/07/14 06:32:39;;;;;;;5.35;2.08;;;;;;;22.40;68.62;99942.22;4902187;28;99086;-71
2021/07/14 06:35:06;;;;;;;3.30;1.90;;;;;;;22.34;67.71;99931.88;4903018;28;112588;-65
2021/07/14 06:37:32;;;;;;;5.70;2.22;;;;;;;22.43;68.57;99929.72;4904283;28;98051;-70
2021/07/14 06:39:59;;;;;;;3.80;1.98;;;;;;;22.54;68.19;99926.03;4901817;28;98864;-65
2021/07/14 06:42:25;;;;;;;3.97;2.10;;;;;;;22.44;68.57;99937.59;4903305;28;111415;-65
2021/07/14 06:44:51;;;;;;;3.08;2.13;;;;;;;22.36;68.97;99938.63;4903480;28;98779;-65
2021/07/14 06:47:17;;;;;;;4.45;2.63;;;;;;;21.95;70.07;99961.94;4885799;28;98759;-71
2021/07/14 06:49:44;;;;;;;4.07;2.47;;;;;;;21.78;70.86;99985.06;4854074;28;109540;-71
2021/07/14 06:52:10;;;;;;;3.28;2.30;;;;;;;21.54;71.74;100000.53;4884613;28;126898;-71
2021/07/14 06:54:38;;;;;;;2.97;2.33;;;;;;;21.45;71.93;100015.53;4902407;28;99002;-71
2021/07/14 06:57:07;;;;;;;5.22;2.42;;;;;;;21.31;72.70;100018.66;4886839;28;97951;-65
2021/07/14 06:59:34;;;;;;;4.88;2.08;;;;;;;21.38;72.88;100010.66;4903060;28;116976;-65
2021/07/14 07:02:04;;;;;;;3.60;2.33;;;;;;;21.36;72.62;100026.66;4903583;28;98554;-70
2021/07/14 07:04:31;;;;;;;3.67;2.08;;;;;;;21.29;72.39;100027.22;4901896;28;97926;-71
2021/07/14 07:06:57;;;;;;;3.83;2.03;;;;;;;21.24;72.85;100035.69;4886423;28;98481;-64
2021/07/14 07:09:23;;;;;;;3.55;2.03;;;;;;;21.22;72.11;100035.25;4901563;28;103121;-65
2021/07/14 07:11:49;;;;;;;4.80;2.20;;;;;;;21.04;74.08;100050.41;4903133;28;98559;-65
2021/07/14 07:14:15;;;;;;;3.80;2.25;;;;;;;21.04;73.42;100056.66;4902343;28;109641;-65
2021/07/14 07:16:41;;;;;;;3.60;2.45;;;;;;;21.09;73.60;100069.31;4902687;28;118332;-71
2021/07/14 07:19:07;;;;;;;3.85;2.28;;;;;;;21.10;73.58;100079.13;4902522;28;127685;-65
2021/07/14 07:21:34;;;;;;;3.13;2.40;;;;;;;20.98;73.82;100077.22;4902657;28;117903;-71
2021/07/14 07:24:00;;;;;;;6.60;2.50;;;;;;;21.26;73.47;100077.28;4903318;28;101327;-65
2021/07/14 07:26:26;;;;;;;4.05;2.60;;;;;;;21.29;73.35;100083.97;4884118;28;115645;-65
2021/07/14 07:28:58;;;;;;;3.40;2.42;;;;;;;21.02;72.72;100083.59;4884236;28;108640;-65
2021/07/14 07:31:25;;;;;;;;;;;;;;;20.80;73.13;100087.66;4903943;28;98191;-70
2021/07/14 07:33:51;;;;;;;4.25;2.45;;;;;;;20.94;72.86;100083.75;4903419;28;98000;-64
2021/07/14 07:36:17;;;;;;;3.92;2.28;;;;;;;20.93;74.26;100082.16;4903403;28;98002;-65
2021/07/14 07:38:43;;;;;;;4.30;2.42;;;;;;;21.26;73.97;100066.31;4901898;28;127077;-70
2021/07/14 07:41:11;;;;;;;5.15;2.53;;;;;;;21.26;74.36;100068.22;4900221;28;123362;-71
2021/07/14 07:43:37;;;;;;;3.92;2.50;;;;;;;21.36;73.77;100070.50;4901993;28;110018;-71
2021/07/14 07:46:03;;;;;;;4.43;2.60;;;;;;;21.42;74.17;100065.56;4902299;28;117729;-65
2021/07/14 07:48:29;;;;;;;7.15;2.50;;;;;;;21.41;73.63;100069.47;4902691;28;98542;-65
2021/07/14 07:50:55;;;;;;;4.70;2.40;;;;;;;21.37;73.55;100069.34;4902805;28;98899;-71
2021/07/14 07:53:22;;;;;;;3.35;2.45;;;;;;;21.53;72.73;100061.97;4902573;28;128052;-65
2021/07/14 07:55:49;;;;;;;3.85;2.70;;;;;;;21.46;73.21;100058.25;4903267;28;98168;-71
2021/07/14 07:58:15;;;;;;;3.40;2.35;;;;;;;21.43;73.60;100070.72;4901483;28;98887;-64
2021/07/14 08:00:41;;;;;;;2.85;2.30;;;;;;;21.33;74.22;100065.72;4902766;28;98040;-71
2021/07/14 08:03:07;;;;;;;4.05;2.50;;;;;;;21.14;73.27;100069.06;4883676;28;112207;-64
2021/07/14 08:05:33;;;;;;;4.65;2.50;;;;;;;21.15;74.06;100061.66;4867387;28;116936;-65
2021/07/14 08:08:00;;;;;;;3.28;2.38;;;;;;;21.05;74.26;100065.69;4903156;28;98747;-65
2021/07/14 08:10:26;;;;;;;3.38;2.30;;;;;;;21.15;73.92;100061.66;4899979;28;98657;-71
2021/07/14 08:12:52;;;;;;;4.70;2.60;;;;;;;21.08;74.23;100048.56;4884241;28;112084;-71
2021/07/14 08:15:18;;;;;;;3.90;2.60;;;;;;;21.23;75.06;100036.84;4902314;28;97835;-65
2021/07/14 08:17:44;;;;;;;4.22;2.95;;;;;;;21.29;75.12;100034.66;4883895;28;126153;-70
2021/07/14 08:20:11;;;;;;;4.15;2.70;;;;;;;21.27;74.32;100029.53;4900581;28;99581;-71
2021/07/14 08:22:37;;;;;;;2.83;2.33;;;;;;;21.37;73.66;100038.41;4899176;28;115125;-65
2021/07/14 08:25:06;;;;;;;2.63;2.40;;;;;;;21.32;73.48;100029.28;4902181;28;107623;-65
2021/07/14 08:27:32;;;;;;;5.78;2.90;;;;;;;21.38;74.10;100037.25;4902825;28;98431;-71
2021/07/14 08:29:59;;;;;;;3.83;2.55;;;;;;;21.09;74.97;100050.94;4902351;28;98596;-68
2021/07/14 08:32:28;;;;;;;3.15;2.85;;;;;;;21.30;74.94;100053.50;4901927;28;97714;-65
2021/07/14 08:34:55;;;;;;;4.63;2.65;;;;;;;21.09;75.49;100083.00;4902476;28;107536;-65
2021/07/14 08:37:22;;;;;;;4.13;2.78;;;;;;;21.01;74.65;100101.19;4901629;28;97948;-65
2021/07/14 08:39:50;;;;;;;4.93;2.65;;;;;;;21.06;75.02;100109.19;4883940;28;98252;-71
2021/07/14 08:42:17;;;;;;;5.63;2.70;;;;;;;20.94;75.69;100105.66;4900903;28;105608;-70
2021/07/14 08:44:43;;;;;;;4.72;3.00;;;;;;;20.92;75.97;100110.69;4901937;28;97951;-64
2021/07/14 08:47:10;;;;;;;4.93;3.00;;;;;;;21.06;76.90;100130.28;4883638;28;98002;-65
2021/07/14 08:49:38;;;;;;;3.90;2.95;;;;;;;21.17;76.90;100119.66;4900308;28;98454;-65
2021/07/14 08:52:04;;;;;;;3.40;3.10;;;;;;;21.29;77.03;100114.13;4883331;28;107279;-71
2021/07/14 08:54:30;;;;;;;4.47;3.40;;;;;;;21.37;75.54;100121.44;4901091;28;98647;-73
2021/07/14 08:56:56;;;;;;;4.50;3.30;;;;;;;21.25;75.50;100122.25;4898487;28;126576;-65
2021/07/14 08:59:22;;;;;;;4.57;3.50;;;;;;;21.61;75.49;100106.03;4900653;28;126134;-71
2021/07/14 09:01:49;;;;;;;7.00;5.07;;;;;;;21.68;75.20;100100.75;4899798;28;98336;-65
2021/07/14 09:04:16;;;;;;;9.52;8.45;;;;;;;21.41;74.97;100097.66;4900744;28;107236;-65
2021/07/14 09:06:42;;;;;;;9.60;8.68;;;;;;;21.64;74.03;100097.13;4899398;28;115487;-70
2021/07/14 09:09:08;;;;;;;9.45;8.57;;;;;;;22.46;71.88;100075.31;4900667;28;128183;-65
2021/07/14 09:11:56;;;;;;;9.60;8.40;;;;;;;23.72;68.59;100071.31;4900628;28;127552;-65
2021/07/14 09:14:34;;;;;;;10.02;9.02;;;;;;;23.58;66.10;100086.72;4901817;28;97895;-71
2021/07/14 09:17:24;;;;;;;8.77;7.93;;;;;;;24.78;63.82;100073.44;4901047;28;97984;-65
2021/07/14 09:20:22;;;;;;;6.97;5.82;;;;;;;25.73;60.66;100079.69;4898490;28;99415;-71
2021/07/14 09:22:48;;;;;;;7.43;6.72;;;;;;;24.92;61.20;100064.56;4901668;28;98511;-71
2021/07/14 09:25:17;;;;;;;6.50;5.90;;;;;;;24.94;61.94;100064.97;4899462;28;104145;-71
2021/07/14 09:28:13;;;;;;;6.70;5.97;;;;;;;25.05;61.33;100076.16;4882472;28;119617;-65
2021/07/14 09:30:40;;;;;;;7.95;4.75;;;;;;;24.59;61.70;100079.84;4896700;28;98251;-65
2021/07/14 09:33:11;;;;;;;5.68;4.07;;;;;;;25.07;61.60;100082.84;4900394;28;98723;-65
2021/07/14 09:35:48;;;;;;;7.17;5.53;;;;;;;24.38;60.93;100082.25;4900424;28;98152;-70
2021/07/14 09:38:29;;;;;;;7.20;5.72;;;;;;;24.27;61.43;100086.78;4898858;28;98512;-65
2021/07/14 09:41:15;;;;;;;4.85;4.43;;;;;;;24.08;64.29;100080.19;4900157;28;103254;-70
2021/07/14 09:43:45;;;;;;;4.90;3.75;;;;;;;24.56;62.92;100079.78;4885063;28;97981;-65
2021/07/14 09:46:13;;;;;;;7.85;6.60;;;;;;;24.75;61.98;100071.41;4899976;28;108798;-70
2021/07/14 09:48:44;;;;;;;8.32;7.10;;;;;;;24.33;61.85;100066.06;4901333;28;98983;-65
2021/07/14 09:51:19;;;;;;;9.23;7.05;;;;;;;24.43;61.92;100059.94;4900647;28;99059;-65
2021/07/14 09:53:53;;;;;;;6.72;6.05;;;;;;;24.20;61.29;100057.19;4899265;28;98814;-70
2021/07/14 09:56:25;;;;;;;5.85;5.28;;;;;;;24.85;57.59;100064.47;4898862;28;97866;-70
2021/07/14 09:59:12;;;;;;;6.97;5.95;;;;;;;26.29;55.08;100042.75;4902312;28;97973;-64
2021/07/14 10:01:49;;;;;;;3.40;2.97;;;;;;;26.81;55.65;100038.75;4902890;28;127079;-71
2021/07/14 10:04:31;;;;;;;3.22;2.80;;;;;;;26.76;55.36;100018.97;4903931;28;98188;-70
2021/07/14 10:07:15;;;;;;;4.45;3.10;;;;;;;27.07;53.14;100026.63;4904406;28;99119;-70
2021/07/14 10:09:42;;;;;;;4.25;3.40;;;;;;;26.11;55.99;100024.09;4901879;28;98504;-64
2021/07/14 10:12:35;;;;;;;5.15;3.80;;;;;;;25.88;57.53;100006.94;4905192;28;98388;-70
2021/07/14 10:15:13;;;;;;;5.78;4.28;;;;;;;25.20;58.63;99998.00;4904376;28;98451;-65
2021/07/14 10:17:41;;;;;;;4.97;4.57;;;;;;;24.94;60.13;99985.03;4904883;28;97861;-70
2021/07/14 10:20:29;;;;;;;5.28;4.78;;;;;;;25.17;58.92;99976.69;4886126;28;98340;-65
2021/07/14 10:23:11;;;;;;;5.97;5.25;;;;;;;25.36;59.46;99975.69;4902188;28;112222;-65
2021/07/14 10:25:39;;;;;;;5.40;4.90;;;;;;;25.07;58.92;99986.38;4904249;28;97935;-65
2021/07/14 10:28:07;;;;;;;5.55;5.00;;;;;;;24.96;59.84;100035.09;4903094;28;97816;-70
2021/07/14 10:30:33;;;;;;;5.20;4.70;;;;;;;24.95;59.27;100061.03;4886387;28;99234;-70
2021/07/14 10:32:59;;;;;;;5.38;4.78;;;;;;;25.17;59.11;100057.44;4902009;28;99652;-70
2021/07/14 10:35:31;;;;;;;5.53;4.90;;;;;;;24.98;59.97;100046.53;4901556;28;97910;-70
2021/07/14 10:37:59;;;;;;;6.20;4.97;;;;;;;25.54;58.11;100044.81;4904692;28;97690;-70
2021/07/14 10:40:26;;;;;;;6.65;6.05;;;;;;;25.61;54.44;100053.19;4901372;28;98295;-70
2021/07/14 10:42:53;;;;;;;7.18;6.35;;;;;;;26.84;52.09;100048.22;4870268;28;98505;-65
2021/07/14 10:45:20;;;;;;;5.65;5.15;;;;;;;27.55;49.35;100043.00;4903329;28;98345;-65
2021/07/14 10:47:46;;;;;;;5.57;4.38;;;;;;;26.99;51.80;100044.34;4904071;28;97788;-69
2021/07/14 10:50:14;;;;;;;5.40;4.95;;;;;;;26.84;52.42;100035.22;4903676;28;98637;-65
2021/07/14 10:52:40;;;;;;;5.03;4.63;;;;;;;26.95;51.47;100056.59;4903367;28;117016;-64
2021/07/14 10:55:09;;;;;;;4.80;4.38;;;;;;;27.00;52.90;100037.66;4903476;28;99261;-69
2021/07/14 10:57:35;;;;;;;5.25;4.78;;;;;;;26.38;53.61;100012.84;4886350;28;97860;-69
2021/07/14 11:00:03;;;;;;;6.25;5.20;;;;;;;26.03;54.13;100003.13;4900783;28;98418;-69
2021/07/14 11:02:56;;;;;;;5.18;4.50;;;;;;;25.58;56.63;99996.78;4884825;28;119815;-64
2021/07/14 11:05:32;;;;;;;5.43;5.03;;;;;;;25.05;55.77;100027.31;4902357;28;97928;-64
2021/07/14 11:07:58;;;;;;;5.20;4.75;;;;;;;24.65;58.60;100058.28;4904298;28;97757;-64
2021/07/14 11:10:35;;;;;;;5.05;4.65;;;;;;;24.82;58.86;100071.50;4879901;28;126874;-64
2021/07/14 11:13:30;;;;;;;5.15;4.75;;;;;;;24.38;59.73;100076.75;4883318;28;99205;-64
2021/07/14 11:15:57;;;;;;;5.30;4.57;;;;;;;24.61;60.63;100071.22;4899082;28;98397;-69
2021/07/14 11:18:29;;;;;;;5.60;4.40;;;;;;;24.37;59.21;100078.72;4902786;28;97920;-69
2021/07/14 11:20:58;;;;;;;5.10;4.70;;;;;;;25.74;56.37;100073.78;4903109;28;98347;-64
2021/07/14 11:23:26;;;;;;;4.13;3.72;;;;;;;25.87;54.41;100068.84;4903563;28;100093;-65
2021/07/14 11:25:57;;;;;;;3.25;2.72;;;;;;;25.80;53.19;100066.00;4903039;28;97852;-64
2021/07/14 11:28:24;;;;;;;3.60;2.80;;;;;;;25.83;54.14;100065.25;4889044;28;98733;-68
2021/07/14 11:30:55;;;;;;;4.00;3.50;;;;;;;24.67;56.87;100069.72;4884489;28;118354;-64
2021/07/14 11:33:27;;;;;;;4.03;3.10;;;;;;;24.88;55.07;100061.75;4885212;28;98667;-64
2021/07/14 11:36:00;;;;;;;3.33;2.95;;;;;;;25.12;54.46;100052.25;4903338;28;98543;-64
2021/07/14 11:38:37;;;;;;;3.40;2.85;;;;;;;25.26;53.46;100048.06;4901589;28;98092;-69
2021/07/14 11:41:03;;;;;;;4.90;3.00;;;;;;;25.56;52.86;100053.53;4899978;28;98466;-64
2021/07/14 11:43:41;;;;;;;4.93;2.97;;;;;;;25.99;51.63;100060.28;4903271;28;98895;-64